sensor_id;sensor_type;location;lat;lon;timestamp;temperature;humidity
29775;DHT22;16676;51.202;6.774;2023-02-15T00:00:29;19.50;61.70
29775;DHT22;16676;51.202;6.774;2023-02-15T00:04:31;19.40;61.40
29775;DHT22;16676;51.202;6.774;2023-02-15T00:08:49;19.40;62.30
29775;DHT22;16676;51.202;6.774;2023-02-15T00:12:50;19.40;61.80
29775;DHT22;16676;51.202;6.774;2023-02-15T00:16:53;19.40;61.90
29775;DHT22;16676;51.202;6.774;2023-02-15T00:20:55;19.40;62.00
29775;DHT22;16676;51.202;6.774;2023-02-15T00:24:58;19.40;62.20
29775;DHT22;16676;51.202;6.774;2023-02-15T00:29:00;19.30;62.20
29775;DHT22;16676;51.202;6.774;2023-02-15T00:33:02;19.30;62.20
29775;DHT22;16676;51.202;6.774;2023-02-15T00:37:04;19.30;62.40
29775;DHT22;16676;51.202;6.774;2023-02-15T00:41:09;19.30;62.50
29775;DHT22;16676;51.202;6.774;2023-02-15T00:45:11;19.20;62.50
29775;DHT22;16676;51.202;6.774;2023-02-15T00:49:13;19.20;62.70
29775;DHT22;16676;51.202;6.774;2023-02-15T00:53:15;19.20;62.70
29775;DHT22;16676;51.202;6.774;2023-02-15T00:57:18;19.20;63.40
29775;DHT22;16676;51.202;6.774;2023-02-15T01:01:20;19.20;62.80
29775;DHT22;16676;51.202;6.774;2023-02-15T01:05:22;19.20;62.70
29775;DHT22;16676;51.202;6.774;2023-02-15T01:09:24;19.10;63.00
29775;DHT22;16676;51.202;6.774;2023-02-15T01:13:27;19.10;62.70
29775;DHT22;16676;51.202;6.774;2023-02-15T01:17:31;19.10;62.60
29775;DHT22;16676;51.202;6.774;2023-02-15T01:21:33;19.10;62.50
29775;DHT22;16676;51.202;6.774;2023-02-15T01:25:35;19.10;62.90
29775;DHT22;16676;51.202;6.774;2023-02-15T01:29:39;19.10;63.00
29775;DHT22;16676;51.202;6.774;2023-02-15T01:33:41;19.10;63.10
29775;DHT22;16676;51.202;6.774;2023-02-15T01:37:43;19.00;63.00
29775;DHT22;16676;51.202;6.774;2023-02-15T01:41:45;19.00;62.90
29775;DHT22;16676;51.202;6.774;2023-02-15T01:45:49;19.00;62.90
29775;DHT22;16676;51.202;6.774;2023-02-15T01:50:00;19.00;63.20
29775;DHT22;16676;51.202;6.774;2023-02-15T01:54:07;19.00;63.20
29775;DHT22;16676;51.202;6.774;2023-02-15T01:58:11;19.00;63.20
29775;DHT22;16676;51.202;6.774;2023-02-15T02:02:16;18.90;63.20
29775;DHT22;16676;51.202;6.774;2023-02-15T02:06:21;18.90;63.20
29775;DHT22;16676;51.202;6.774;2023-02-15T02:10:24;18.90;63.40
29775;DHT22;16676;51.202;6.774;2023-02-15T02:14:26;18.90;63.50
29775;DHT22;16676;51.202;6.774;2023-02-15T02:18:38;18.90;63.50
29775;DHT22;16676;51.202;6.774;2023-02-15T02:23:11;18.90;63.70
29775;DHT22;16676;51.202;6.774;2023-02-15T02:27:30;18.90;63.60
29775;DHT22;16676;51.202;6.774;2023-02-15T02:31:58;18.80;63.40
29775;DHT22;16676;51.202;6.774;2023-02-15T02:36:14;18.80;63.50
29775;DHT22;16676;51.202;6.774;2023-02-15T02:40:23;18.80;63.50
29775;DHT22;16676;51.202;6.774;2023-02-15T02:44:30;18.80;63.60
29775;DHT22;16676;51.202;6.774;2023-02-15T02:48:33;18.80;63.50
29775;DHT22;16676;51.202;6.774;2023-02-15T02:52:40;18.80;63.40
29775;DHT22;16676;51.202;6.774;2023-02-15T02:56:44;18.70;63.50
29775;DHT22;16676;51.202;6.774;2023-02-15T03:00:52;18.70;63.40
29775;DHT22;16676;51.202;6.774;2023-02-15T03:04:59;18.70;63.60
29775;DHT22;16676;51.202;6.774;2023-02-15T03:09:11;18.80;63.40
29775;DHT22;16676;51.202;6.774;2023-02-15T03:13:16;18.70;63.40
29775;DHT22;16676;51.202;6.774;2023-02-15T03:17:20;18.70;63.40
29775;DHT22;16676;51.202;6.774;2023-02-15T03:21:31;18.70;63.30
29775;DHT22;16676;51.202;6.774;2023-02-15T03:25:38;18.70;63.30
29775;DHT22;16676;51.202;6.774;2023-02-15T03:29:41;18.70;63.30
29775;DHT22;16676;51.202;6.774;2023-02-15T03:33:48;18.70;63.30
29775;DHT22;16676;51.202;6.774;2023-02-15T03:37:54;18.70;63.20
29775;DHT22;16676;51.202;6.774;2023-02-15T03:42:06;18.60;63.20
29775;DHT22;16676;51.202;6.774;2023-02-15T03:46:13;18.60;63.20
29775;DHT22;16676;51.202;6.774;2023-02-15T03:50:19;18.60;63.30
29775;DHT22;16676;51.202;6.774;2023-02-15T03:54:40;18.60;63.30
29775;DHT22;16676;51.202;6.774;2023-02-15T03:58:47;18.60;63.20
29775;DHT22;16676;51.202;6.774;2023-02-15T04:03:22;18.50;63.40
29775;DHT22;16676;51.202;6.774;2023-02-15T04:07:25;18.50;63.30
29775;DHT22;16676;51.202;6.774;2023-02-15T04:11:27;18.50;63.40
29775;DHT22;16676;51.202;6.774;2023-02-15T04:15:30;18.50;63.40
29775;DHT22;16676;51.202;6.774;2023-02-15T04:19:50;18.50;63.30
29775;DHT22;16676;51.202;6.774;2023-02-15T04:24:10;18.50;63.40
29775;DHT22;16676;51.202;6.774;2023-02-15T04:28:30;18.50;63.40
29775;DHT22;16676;51.202;6.774;2023-02-15T04:32:34;18.50;63.30
29775;DHT22;16676;51.202;6.774;2023-02-15T04:36:36;18.40;63.20
29775;DHT22;16676;51.202;6.774;2023-02-15T04:40:38;18.40;63.20
29775;DHT22;16676;51.202;6.774;2023-02-15T04:44:40;18.40;63.10
29775;DHT22;16676;51.202;6.774;2023-02-15T04:48:43;18.40;63.10
29775;DHT22;16676;51.202;6.774;2023-02-15T04:52:45;18.40;63.20
29775;DHT22;16676;51.202;6.774;2023-02-15T04:56:47;18.40;63.10
29775;DHT22;16676;51.202;6.774;2023-02-15T05:00:49;18.40;63.00
29775;DHT22;16676;51.202;6.774;2023-02-15T05:04:52;18.40;63.00
29775;DHT22;16676;51.202;6.774;2023-02-15T05:08:54;18.30;62.90
29775;DHT22;16676;51.202;6.774;2023-02-15T05:12:56;18.30;63.00
29775;DHT22;16676;51.202;6.774;2023-02-15T05:16:58;18.40;63.10
29775;DHT22;16676;51.202;6.774;2023-02-15T05:21:03;18.30;63.10
29775;DHT22;16676;51.202;6.774;2023-02-15T05:25:06;18.30;63.10
29775;DHT22;16676;51.202;6.774;2023-02-15T05:29:30;18.30;63.10
29775;DHT22;16676;51.202;6.774;2023-02-15T05:33:33;18.30;63.10
29775;DHT22;16676;51.202;6.774;2023-02-15T05:37:36;18.20;63.10
29775;DHT22;16676;51.202;6.774;2023-02-15T05:41:38;18.20;63.10
29775;DHT22;16676;51.202;6.774;2023-02-15T05:45:40;18.20;63.20
29775;DHT22;16676;51.202;6.774;2023-02-15T05:49:45;18.20;63.20
29775;DHT22;16676;51.202;6.774;2023-02-15T05:53:49;18.30;63.40
29775;DHT22;16676;51.202;6.774;2023-02-15T05:57:50;18.20;63.30
29775;DHT22;16676;51.202;6.774;2023-02-15T06:01:52;18.20;63.10
29775;DHT22;16676;51.202;6.774;2023-02-15T06:05:54;18.20;63.10
29775;DHT22;16676;51.202;6.774;2023-02-15T06:09:58;18.20;63.00
29775;DHT22;16676;51.202;6.774;2023-02-15T06:13:59;18.20;63.00
29775;DHT22;16676;51.202;6.774;2023-02-15T06:18:01;18.10;63.90
29775;DHT22;16676;51.202;6.774;2023-02-15T06:22:03;18.20;63.10
29775;DHT22;16676;51.202;6.774;2023-02-15T06:26:08;18.10;63.10
29775;DHT22;16676;51.202;6.774;2023-02-15T06:30:11;18.10;63.00
29775;DHT22;16676;51.202;6.774;2023-02-15T06:34:13;18.10;63.10
29775;DHT22;16676;51.202;6.774;2023-02-15T06:38:15;18.00;60.00
29775;DHT22;16676;51.202;6.774;2023-02-15T06:42:19;17.80;54.50
29775;DHT22;16676;51.202;6.774;2023-02-15T06:46:21;17.50;52.90
29775;DHT22;16676;51.202;6.774;2023-02-15T06:50:23;17.30;51.30
29775;DHT22;16676;51.202;6.774;2023-02-15T06:54:25;17.30;54.20
29775;DHT22;16676;51.202;6.774;2023-02-15T06:58:28;17.50;55.70
29775;DHT22;16676;51.202;6.774;2023-02-15T07:02:30;17.60;55.90
29775;DHT22;16676;51.202;6.774;2023-02-15T07:06:32;17.80;56.50
29775;DHT22;16676;51.202;6.774;2023-02-15T07:10:35;17.90;56.90
29775;DHT22;16676;51.202;6.774;2023-02-15T07:14:39;18.10;57.00
29775;DHT22;16676;51.202;6.774;2023-02-15T07:18:41;18.30;56.90
29775;DHT22;16676;51.202;6.774;2023-02-15T07:22:43;18.50;56.70
29775;DHT22;16676;51.202;6.774;2023-02-15T07:26:45;18.80;56.30
29775;DHT22;16676;51.202;6.774;2023-02-15T07:30:48;19.00;55.70
29775;DHT22;16676;51.202;6.774;2023-02-15T07:34:50;19.30;55.20
29775;DHT22;16676;51.202;6.774;2023-02-15T07:38:52;19.30;54.80
29775;DHT22;16676;51.202;6.774;2023-02-15T07:42:57;19.30;55.40
29775;DHT22;16676;51.202;6.774;2023-02-15T07:47:01;19.20;55.70
29775;DHT22;16676;51.202;6.774;2023-02-15T07:51:04;19.10;55.80
29775;DHT22;16676;51.202;6.774;2023-02-15T07:55:07;19.10;55.80
29775;DHT22;16676;51.202;6.774;2023-02-15T07:59:13;19.10;55.90
29775;DHT22;16676;51.202;6.774;2023-02-15T08:03:16;19.00;55.90
29775;DHT22;16676;51.202;6.774;2023-02-15T08:07:18;19.10;56.50
29775;DHT22;16676;51.202;6.774;2023-02-15T08:11:21;19.20;56.50
29775;DHT22;16676;51.202;6.774;2023-02-15T08:15:29;19.70;55.60
29775;DHT22;16676;51.202;6.774;2023-02-15T08:19:33;20.50;53.50
29775;DHT22;16676;51.202;6.774;2023-02-15T08:23:36;21.10;51.60
29775;DHT22;16676;51.202;6.774;2023-02-15T08:27:38;21.80;49.70
29775;DHT22;16676;51.202;6.774;2023-02-15T08:31:40;22.40;48.10
29775;DHT22;16676;51.202;6.774;2023-02-15T08:35:44;22.50;47.40
29775;DHT22;16676;51.202;6.774;2023-02-15T08:39:46;22.40;47.80
29775;DHT22;16676;51.202;6.774;2023-02-15T08:43:49;22.00;49.00
29775;DHT22;16676;51.202;6.774;2023-02-15T08:47:52;21.70;50.10
29775;DHT22;16676;51.202;6.774;2023-02-15T08:51:55;21.30;51.30
29775;DHT22;16676;51.202;6.774;2023-02-15T08:55:57;21.10;52.70
29775;DHT22;16676;51.202;6.774;2023-02-15T08:59:59;20.80;53.30
29775;DHT22;16676;51.202;6.774;2023-02-15T09:04:05;20.60;54.10
29775;DHT22;16676;51.202;6.774;2023-02-15T09:08:10;20.50;54.80
29775;DHT22;16676;51.202;6.774;2023-02-15T09:12:12;20.40;55.20
29775;DHT22;16676;51.202;6.774;2023-02-15T09:16:14;20.30;55.70
29775;DHT22;16676;51.202;6.774;2023-02-15T09:20:17;20.30;55.80
29775;DHT22;16676;51.202;6.774;2023-02-15T09:24:20;20.30;55.90
29775;DHT22;16676;51.202;6.774;2023-02-15T09:28:22;20.30;56.20
29775;DHT22;16676;51.202;6.774;2023-02-15T09:32:24;20.30;56.20
29775;DHT22;16676;51.202;6.774;2023-02-15T09:36:28;20.40;56.40
29775;DHT22;16676;51.202;6.774;2023-02-15T09:40:36;20.40;56.40
29775;DHT22;16676;51.202;6.774;2023-02-15T09:44:59;20.40;56.70
29775;DHT22;16676;51.202;6.774;2023-02-15T09:49:09;20.40;56.90
29775;DHT22;16676;51.202;6.774;2023-02-15T09:53:26;20.30;56.80
29775;DHT22;16676;51.202;6.774;2023-02-15T09:57:37;20.30;56.90
29775;DHT22;16676;51.202;6.774;2023-02-15T10:01:46;20.30;57.30
29775;DHT22;16676;51.202;6.774;2023-02-15T10:06:03;20.20;57.50
29775;DHT22;16676;51.202;6.774;2023-02-15T10:10:19;20.20;57.70
29775;DHT22;16676;51.202;6.774;2023-02-15T10:19:14;20.20;57.80
29775;DHT22;16676;51.202;6.774;2023-02-15T10:23:30;20.20;57.80
29775;DHT22;16676;51.202;6.774;2023-02-15T10:27:38;20.20;57.80
29775;DHT22;16676;51.202;6.774;2023-02-15T10:31:48;20.20;57.90
29775;DHT22;16676;51.202;6.774;2023-02-15T10:36:01;20.30;57.90
29775;DHT22;16676;51.202;6.774;2023-02-15T10:40:13;20.40;57.70
29775;DHT22;16676;51.202;6.774;2023-02-15T10:44:28;20.40;57.60
29775;DHT22;16676;51.202;6.774;2023-02-15T10:48:54;20.40;57.60
29775;DHT22;16676;51.202;6.774;2023-02-15T10:53:13;20.40;58.00
29775;DHT22;16676;51.202;6.774;2023-02-15T10:57:23;20.40;57.80
29775;DHT22;16676;51.202;6.774;2023-02-15T11:01:32;20.50;57.70
29775;DHT22;16676;51.202;6.774;2023-02-15T11:05:42;20.50;57.60
29775;DHT22;16676;51.202;6.774;2023-02-15T11:09:53;20.60;57.60
29775;DHT22;16676;51.202;6.774;2023-02-15T11:14:00;20.60;57.80
29775;DHT22;16676;51.202;6.774;2023-02-15T11:18:10;20.70;57.80
29775;DHT22;16676;51.202;6.774;2023-02-15T11:22:13;20.70;57.30
29775;DHT22;16676;51.202;6.774;2023-02-15T11:26:20;20.80;57.40
29775;DHT22;16676;51.202;6.774;2023-02-15T11:30:26;20.80;57.90
29775;DHT22;16676;51.202;6.774;2023-02-15T11:34:33;20.90;57.40
29775;DHT22;16676;51.202;6.774;2023-02-15T11:38:36;20.90;57.50
29775;DHT22;16676;51.202;6.774;2023-02-15T11:42:41;20.90;57.30
29775;DHT22;16676;51.202;6.774;2023-02-15T11:46:44;20.90;57.30
29775;DHT22;16676;51.202;6.774;2023-02-15T11:50:46;20.70;53.50
29775;DHT22;16676;51.202;6.774;2023-02-15T11:54:50;20.60;53.30
29775;DHT22;16676;51.202;6.774;2023-02-15T11:58:56;20.70;53.10
29775;DHT22;16676;51.202;6.774;2023-02-15T12:03:03;20.70;52.60
29775;DHT22;16676;51.202;6.774;2023-02-15T12:07:13;20.70;52.70
29775;DHT22;16676;51.202;6.774;2023-02-15T12:11:19;20.70;52.50
29775;DHT22;16676;51.202;6.774;2023-02-15T12:15:30;20.80;52.20
29775;DHT22;16676;51.202;6.774;2023-02-15T12:19:37;20.80;50.60
29775;DHT22;16676;51.202;6.774;2023-02-15T12:23:46;20.70;50.50
29775;DHT22;16676;51.202;6.774;2023-02-15T12:27:48;20.70;49.70
29775;DHT22;16676;51.202;6.774;2023-02-15T12:31:52;20.60;49.60
29775;DHT22;16676;51.202;6.774;2023-02-15T12:35:57;20.70;49.70
29775;DHT22;16676;51.202;6.774;2023-02-15T12:40:18;20.70;49.70
29775;DHT22;16676;51.202;6.774;2023-02-15T12:44:21;20.70;47.80
29775;DHT22;16676;51.202;6.774;2023-02-15T12:48:26;20.70;48.90
29775;DHT22;16676;51.202;6.774;2023-02-15T12:52:28;20.70;48.40
29775;DHT22;16676;51.202;6.774;2023-02-15T12:56:30;20.70;47.90
29775;DHT22;16676;51.202;6.774;2023-02-15T13:00:32;20.60;48.50
29775;DHT22;16676;51.202;6.774;2023-02-15T13:04:36;20.70;47.40
29775;DHT22;16676;51.202;6.774;2023-02-15T13:08:45;20.70;47.70
29775;DHT22;16676;51.202;6.774;2023-02-15T13:12:47;20.60;46.60
29775;DHT22;16676;51.202;6.774;2023-02-15T13:16:57;20.60;46.90
29775;DHT22;16676;51.202;6.774;2023-02-15T13:21:09;20.70;47.10
29775;DHT22;16676;51.202;6.774;2023-02-15T13:25:15;20.80;47.50
29775;DHT22;16676;51.202;6.774;2023-02-15T13:29:23;20.80;47.10
29775;DHT22;16676;51.202;6.774;2023-02-15T13:33:31;20.80;47.70
29775;DHT22;16676;51.202;6.774;2023-02-15T13:37:52;20.90;47.80
29775;DHT22;16676;51.202;6.774;2023-02-15T13:42:02;20.90;46.50
29775;DHT22;16676;51.202;6.774;2023-02-15T13:46:08;20.90;47.00
29775;DHT22;16676;51.202;6.774;2023-02-15T13:50:20;21.00;46.60
29775;DHT22;16676;51.202;6.774;2023-02-15T13:54:47;21.00;46.90
29775;DHT22;16676;51.202;6.774;2023-02-15T13:59:01;21.00;46.40
29775;DHT22;16676;51.202;6.774;2023-02-15T14:07:55;21.10;46.60
29775;DHT22;16676;51.202;6.774;2023-02-15T14:12:11;21.10;45.70
29775;DHT22;16676;51.202;6.774;2023-02-15T14:16:26;21.10;46.30
29775;DHT22;16676;51.202;6.774;2023-02-15T14:20:44;21.20;46.00
29775;DHT22;16676;51.202;6.774;2023-02-15T14:25:05;21.20;46.30
29775;DHT22;16676;51.202;6.774;2023-02-15T14:29:28;21.20;46.50
29775;DHT22;16676;51.202;6.774;2023-02-15T14:33:32;21.20;46.00
29775;DHT22;16676;51.202;6.774;2023-02-15T14:37:46;21.10;46.70
29775;DHT22;16676;51.202;6.774;2023-02-15T14:41:50;21.20;47.00
29775;DHT22;16676;51.202;6.774;2023-02-15T14:45:58;21.10;46.70
29775;DHT22;16676;51.202;6.774;2023-02-15T14:54:58;21.00;47.30
29775;DHT22;16676;51.202;6.774;2023-02-15T14:59:20;21.10;47.70
29775;DHT22;16676;51.202;6.774;2023-02-15T15:03:24;21.00;47.50
29775;DHT22;16676;51.202;6.774;2023-02-15T15:07:34;20.90;47.00
29775;DHT22;16676;51.202;6.774;2023-02-15T15:11:43;20.90;47.30
29775;DHT22;16676;51.202;6.774;2023-02-15T15:15:46;20.90;47.70
29775;DHT22;16676;51.202;6.774;2023-02-15T15:20:00;20.80;47.50
29775;DHT22;16676;51.202;6.774;2023-02-15T15:24:05;20.80;47.70
29775;DHT22;16676;51.202;6.774;2023-02-15T15:28:07;20.80;47.80
29775;DHT22;16676;51.202;6.774;2023-02-15T15:32:10;20.80;47.60
29775;DHT22;16676;51.202;6.774;2023-02-15T15:41:13;20.80;48.00
29775;DHT22;16676;51.202;6.774;2023-02-15T15:45:36;20.80;48.70
29775;DHT22;16676;51.202;6.774;2023-02-15T15:49:43;20.80;48.70
29775;DHT22;16676;51.202;6.774;2023-02-15T15:53:49;20.80;48.70
29775;DHT22;16676;51.202;6.774;2023-02-15T15:57:56;20.80;48.80
29775;DHT22;16676;51.202;6.774;2023-02-15T16:02:04;20.80;49.00
29775;DHT22;16676;51.202;6.774;2023-02-15T16:06:13;20.80;48.90
29775;DHT22;16676;51.202;6.774;2023-02-15T16:10:27;20.80;49.20
29775;DHT22;16676;51.202;6.774;2023-02-15T16:14:31;20.80;48.90
29775;DHT22;16676;51.202;6.774;2023-02-15T16:18:37;20.70;48.90
29775;DHT22;16676;51.202;6.774;2023-02-15T16:22:42;20.70;48.70
29775;DHT22;16676;51.202;6.774;2023-02-15T16:27:14;20.70;49.20
29775;DHT22;16676;51.202;6.774;2023-02-15T16:31:18;20.60;48.80
29775;DHT22;16676;51.202;6.774;2023-02-15T16:35:21;20.50;48.70
29775;DHT22;16676;51.202;6.774;2023-02-15T16:39:24;20.40;48.80
29775;DHT22;16676;51.202;6.774;2023-02-15T16:43:29;20.30;49.00
29775;DHT22;16676;51.202;6.774;2023-02-15T16:47:36;20.30;48.50
29775;DHT22;16676;51.202;6.774;2023-02-15T16:51:42;20.20;49.30
29775;DHT22;16676;51.202;6.774;2023-02-15T16:55:49;20.10;49.00
29775;DHT22;16676;51.202;6.774;2023-02-15T16:59:55;20.10;49.40
29775;DHT22;16676;51.202;6.774;2023-02-15T17:04:22;20.00;49.30
29775;DHT22;16676;51.202;6.774;2023-02-15T17:08:30;20.00;49.00
29775;DHT22;16676;51.202;6.774;2023-02-15T17:12:46;19.90;49.40
29775;DHT22;16676;51.202;6.774;2023-02-15T17:16:50;19.90;49.50
29775;DHT22;16676;51.202;6.774;2023-02-15T17:20:56;19.90;49.90
29775;DHT22;16676;51.202;6.774;2023-02-15T17:25:01;19.80;49.80
29775;DHT22;16676;51.202;6.774;2023-02-15T17:29:14;19.70;49.60
29775;DHT22;16676;51.202;6.774;2023-02-15T17:33:24;19.80;49.50
29775;DHT22;16676;51.202;6.774;2023-02-15T17:37:32;19.80;49.80
29775;DHT22;16676;51.202;6.774;2023-02-15T17:41:42;19.70;49.70
29775;DHT22;16676;51.202;6.774;2023-02-15T17:45:47;19.70;50.00
29775;DHT22;16676;51.202;6.774;2023-02-15T17:49:52;19.80;50.10
29775;DHT22;16676;51.202;6.774;2023-02-15T17:53:54;19.70;50.80
29775;DHT22;16676;51.202;6.774;2023-02-15T17:58:14;19.80;50.70
29775;DHT22;16676;51.202;6.774;2023-02-15T18:02:16;19.80;51.30
29775;DHT22;16676;51.202;6.774;2023-02-15T18:06:39;19.80;51.90
29775;DHT22;16676;51.202;6.774;2023-02-15T18:10:59;19.80;52.00
29775;DHT22;16676;51.202;6.774;2023-02-15T18:15:19;19.80;52.10
29775;DHT22;16676;51.202;6.774;2023-02-15T18:19:23;19.80;52.30
29775;DHT22;16676;51.202;6.774;2023-02-15T18:23:27;19.70;52.40
29775;DHT22;16676;51.202;6.774;2023-02-15T18:27:29;19.70;52.60
29775;DHT22;16676;51.202;6.774;2023-02-15T18:31:30;19.70;52.60
29775;DHT22;16676;51.202;6.774;2023-02-15T18:35:32;19.70;52.80
29775;DHT22;16676;51.202;6.774;2023-02-15T18:39:38;19.70;53.10
29775;DHT22;16676;51.202;6.774;2023-02-15T18:43:40;19.70;53.20
29775;DHT22;16676;51.202;6.774;2023-02-15T18:47:43;19.70;53.30
29775;DHT22;16676;51.202;6.774;2023-02-15T18:51:45;19.70;53.60
29775;DHT22;16676;51.202;6.774;2023-02-15T18:55:48;19.70;53.70
29775;DHT22;16676;51.202;6.774;2023-02-15T18:59:50;19.70;54.20
29775;DHT22;16676;51.202;6.774;2023-02-15T19:03:52;19.70;54.40
29775;DHT22;16676;51.202;6.774;2023-02-15T19:07:54;19.70;54.90
29775;DHT22;16676;51.202;6.774;2023-02-15T19:11:59;19.60;54.60
29775;DHT22;16676;51.202;6.774;2023-02-15T19:16:00;19.60;54.90
29775;DHT22;16676;51.202;6.774;2023-02-15T19:20:05;19.60;54.90
29775;DHT22;16676;51.202;6.774;2023-02-15T19:24:12;19.60;55.00
29775;DHT22;16676;51.202;6.774;2023-02-15T19:28:19;19.50;55.10
29775;DHT22;16676;51.202;6.774;2023-02-15T19:32:21;19.60;55.10
29775;DHT22;16676;51.202;6.774;2023-02-15T19:36:24;19.60;55.40
29775;DHT22;16676;51.202;6.774;2023-02-15T19:40:28;19.50;55.40
29775;DHT22;16676;51.202;6.774;2023-02-15T19:44:31;19.50;55.50
29775;DHT22;16676;51.202;6.774;2023-02-15T19:48:33;19.50;55.30
29775;DHT22;16676;51.202;6.774;2023-02-15T19:52:35;19.50;55.50
29775;DHT22;16676;51.202;6.774;2023-02-15T19:56:37;19.50;55.60
29775;DHT22;16676;51.202;6.774;2023-02-15T20:00:40;19.40;55.60
29775;DHT22;16676;51.202;6.774;2023-02-15T20:04:42;19.40;55.80
29775;DHT22;16676;51.202;6.774;2023-02-15T20:08:45;19.40;55.90
29775;DHT22;16676;51.202;6.774;2023-02-15T20:12:47;19.40;55.80
29775;DHT22;16676;51.202;6.774;2023-02-15T20:16:50;19.40;55.90
29775;DHT22;16676;51.202;6.774;2023-02-15T20:20:53;19.40;56.20
29775;DHT22;16676;51.202;6.774;2023-02-15T20:24:55;19.40;56.40
29775;DHT22;16676;51.202;6.774;2023-02-15T20:28:58;19.40;56.70
29775;DHT22;16676;51.202;6.774;2023-02-15T20:33:01;19.40;56.30
29775;DHT22;16676;51.202;6.774;2023-02-15T20:37:04;19.30;56.30
29775;DHT22;16676;51.202;6.774;2023-02-15T20:41:12;19.30;56.40
29775;DHT22;16676;51.202;6.774;2023-02-15T20:45:32;19.30;56.50
29775;DHT22;16676;51.202;6.774;2023-02-15T20:49:36;19.30;56.60
29775;DHT22;16676;51.202;6.774;2023-02-15T20:53:38;19.30;56.60
29775;DHT22;16676;51.202;6.774;2023-02-15T20:57:40;19.30;57.00
29775;DHT22;16676;51.202;6.774;2023-02-15T21:01:41;19.20;56.90
29775;DHT22;16676;51.202;6.774;2023-02-15T21:05:45;19.20;56.90
29775;DHT22;16676;51.202;6.774;2023-02-15T21:09:49;19.20;57.10
29775;DHT22;16676;51.202;6.774;2023-02-15T21:13:52;19.20;57.10
29775;DHT22;16676;51.202;6.774;2023-02-15T21:17:54;19.20;57.10
29775;DHT22;16676;51.202;6.774;2023-02-15T21:21:57;19.20;57.30
29775;DHT22;16676;51.202;6.774;2023-02-15T21:26:00;19.20;57.20
29775;DHT22;16676;51.202;6.774;2023-02-15T21:30:04;19.10;57.40
29775;DHT22;16676;51.202;6.774;2023-02-15T21:34:07;19.10;57.30
29775;DHT22;16676;51.202;6.774;2023-02-15T21:38:12;19.10;57.50
29775;DHT22;16676;51.202;6.774;2023-02-15T21:42:15;19.10;57.50
29775;DHT22;16676;51.202;6.774;2023-02-15T21:46:34;19.10;57.60
29775;DHT22;16676;51.202;6.774;2023-02-15T21:50:54;19.10;57.70
29775;DHT22;16676;51.202;6.774;2023-02-15T21:55:18;19.10;57.90
29775;DHT22;16676;51.202;6.774;2023-02-15T21:59:20;19.00;57.90
29775;DHT22;16676;51.202;6.774;2023-02-15T22:03:22;19.00;58.00
29775;DHT22;16676;51.202;6.774;2023-02-15T22:07:25;19.00;57.90
29775;DHT22;16676;51.202;6.774;2023-02-15T22:11:29;19.00;58.00
29775;DHT22;16676;51.202;6.774;2023-02-15T22:15:34;19.00;57.90
29775;DHT22;16676;51.202;6.774;2023-02-15T22:19:36;19.00;58.10
29775;DHT22;16676;51.202;6.774;2023-02-15T22:23:38;19.00;58.20
29775;DHT22;16676;51.202;6.774;2023-02-15T22:27:42;19.00;58.30
29775;DHT22;16676;51.202;6.774;2023-02-15T22:31:45;19.00;58.40
29775;DHT22;16676;51.202;6.774;2023-02-15T22:35:48;18.90;58.50
29775;DHT22;16676;51.202;6.774;2023-02-15T22:39:50;18.90;58.50
29775;DHT22;16676;51.202;6.774;2023-02-15T22:43:54;18.90;58.60
29775;DHT22;16676;51.202;6.774;2023-02-15T22:47:58;18.90;58.80
29775;DHT22;16676;51.202;6.774;2023-02-15T22:52:00;18.90;58.80
29775;DHT22;16676;51.202;6.774;2023-02-15T22:56:06;18.90;59.50
29775;DHT22;16676;51.202;6.774;2023-02-15T23:00:15;18.90;58.90
29775;DHT22;16676;51.202;6.774;2023-02-15T23:04:19;18.80;59.00
29775;DHT22;16676;51.202;6.774;2023-02-15T23:08:21;18.80;59.00
29775;DHT22;16676;51.202;6.774;2023-02-15T23:12:25;18.80;59.10
29775;DHT22;16676;51.202;6.774;2023-02-15T23:16:30;18.80;59.00
29775;DHT22;16676;51.202;6.774;2023-02-15T23:20:32;18.80;58.90
29775;DHT22;16676;51.202;6.774;2023-02-15T23:24:34;18.80;59.00
29775;DHT22;16676;51.202;6.774;2023-02-15T23:28:37;18.70;59.10
29775;DHT22;16676;51.202;6.774;2023-02-15T23:32:40;18.70;59.10
29775;DHT22;16676;51.202;6.774;2023-02-15T23:36:42;18.70;59.10
29775;DHT22;16676;51.202;6.774;2023-02-15T23:40:48;18.70;59.00
29775;DHT22;16676;51.202;6.774;2023-02-15T23:45:19;18.70;59.10
29775;DHT22;16676;51.202;6.774;2023-02-15T23:49:23;18.70;59.10
29775;DHT22;16676;51.202;6.774;2023-02-15T23:53:25;18.70;59.20
29775;DHT22;16676;51.202;6.774;2023-02-15T23:57:27;18.70;59.20
